sensor_id;sensor_type;location;lat;lon;timestamp;P1;durP1;ratioP1;P2;durP2;ratioP2
2810;SDS011;1413;52.440;13.506;2022-08-21T00:00:31;8.73;;;4.80;;
2810;SDS011;1413;52.440;13.506;2022-08-21T00:03:01;6.82;;;4.53;;
2810;SDS011;1413;52.440;13.506;2022-08-21T00:05:29;8.07;;;4.05;;
2810;SDS011;1413;52.440;13.506;2022-08-21T00:07:57;8.20;;;5.00;;
2810;SDS011;1413;52.440;13.506;2022-08-21T00:10:25;7.30;;;4.13;;
2810;SDS011;1413;52.440;13.506;2022-08-21T00:12:53;8.23;;;4.13;;
2810;SDS011;1413;52.440;13.506;2022-08-21T00:15:23;6.97;;;4.57;;
2810;SDS011;1413;52.440;13.506;2022-08-21T00:17:52;8.02;;;4.13;;
2810;SDS011;1413;52.440;13.506;2022-08-21T00:20:21;9.98;;;4.72;;
2810;SDS011;1413;52.440;13.506;2022-08-21T00:22:49;7.40;;;4.20;;
2810;SDS011;1413;52.440;13.506;2022-08-21T00:25:18;8.18;;;4.63;;
2810;SDS011;1413;52.440;13.506;2022-08-21T00:27:50;8.48;;;3.97;;
2810;SDS011;1413;52.440;13.506;2022-08-21T00:30:18;7.03;;;4.22;;
2810;SDS011;1413;52.440;13.506;2022-08-21T00:32:49;9.50;;;4.53;;
2810;SDS011;1413;52.440;13.506;2022-08-21T00:35:18;9.23;;;4.40;;
2810;SDS011;1413;52.440;13.506;2022-08-21T00:37:46;7.70;;;4.25;;
2810;SDS011;1413;52.440;13.506;2022-08-21T00:40:16;7.88;;;4.00;;
2810;SDS011;1413;52.440;13.506;2022-08-21T00:42:43;8.27;;;4.50;;
2810;SDS011;1413;52.440;13.506;2022-08-21T00:45:24;8.10;;;3.78;;
2810;SDS011;1413;52.440;13.506;2022-08-21T00:47:53;7.60;;;3.95;;
2810;SDS011;1413;52.440;13.506;2022-08-21T00:50:22;8.35;;;4.93;;
2810;SDS011;1413;52.440;13.506;2022-08-21T00:52:51;6.40;;;3.63;;
2810;SDS011;1413;52.440;13.506;2022-08-21T00:55:19;7.53;;;3.80;;
2810;SDS011;1413;52.440;13.506;2022-08-21T00:57:50;8.63;;;4.13;;
2810;SDS011;1413;52.440;13.506;2022-08-21T01:00:24;9.73;;;4.10;;
2810;SDS011;1413;52.440;13.506;2022-08-21T01:02:52;10.02;;;3.70;;
2810;SDS011;1413;52.440;13.506;2022-08-21T01:05:20;8.30;;;3.88;;
2810;SDS011;1413;52.440;13.506;2022-08-21T01:07:47;6.30;;;3.85;;
2810;SDS011;1413;52.440;13.506;2022-08-21T01:10:16;7.70;;;3.70;;
2810;SDS011;1413;52.440;13.506;2022-08-21T01:12:50;6.72;;;3.33;;
2810;SDS011;1413;52.440;13.506;2022-08-21T01:15:17;6.53;;;3.55;;
2810;SDS011;1413;52.440;13.506;2022-08-21T01:17:46;9.80;;;3.78;;
2810;SDS011;1413;52.440;13.506;2022-08-21T01:20:15;9.13;;;4.00;;
2810;SDS011;1413;52.440;13.506;2022-08-21T01:22:44;8.23;;;3.35;;
2810;SDS011;1413;52.440;13.506;2022-08-21T01:25:13;7.55;;;3.55;;
2810;SDS011;1413;52.440;13.506;2022-08-21T01:27:42;6.45;;;3.20;;
2810;SDS011;1413;52.440;13.506;2022-08-21T01:30:10;10.40;;;3.65;;
2810;SDS011;1413;52.440;13.506;2022-08-21T01:32:38;13.27;;;3.78;;
2810;SDS011;1413;52.440;13.506;2022-08-21T01:35:06;10.10;;;4.00;;
2810;SDS011;1413;52.440;13.506;2022-08-21T01:37:34;7.05;;;3.45;;
2810;SDS011;1413;52.440;13.506;2022-08-21T01:40:04;6.97;;;3.38;;
2810;SDS011;1413;52.440;13.506;2022-08-21T01:42:32;11.27;;;3.83;;
2810;SDS011;1413;52.440;13.506;2022-08-21T01:44:59;7.80;;;4.50;;
2810;SDS011;1413;52.440;13.506;2022-08-21T01:47:27;8.48;;;3.78;;
2810;SDS011;1413;52.440;13.506;2022-08-21T01:49:54;9.05;;;3.63;;
2810;SDS011;1413;52.440;13.506;2022-08-21T01:52:22;6.35;;;3.42;;
2810;SDS011;1413;52.440;13.506;2022-08-21T01:54:50;7.45;;;3.25;;
2810;SDS011;1413;52.440;13.506;2022-08-21T01:57:22;8.57;;;3.42;;
2810;SDS011;1413;52.440;13.506;2022-08-21T01:59:51;6.32;;;3.45;;
2810;SDS011;1413;52.440;13.506;2022-08-21T02:02:19;6.05;;;3.15;;
2810;SDS011;1413;52.440;13.506;2022-08-21T02:04:46;7.00;;;3.00;;
2810;SDS011;1413;52.440;13.506;2022-08-21T02:07:13;7.70;;;2.65;;
2810;SDS011;1413;52.440;13.506;2022-08-21T02:09:41;8.63;;;3.05;;
2810;SDS011;1413;52.440;13.506;2022-08-21T02:12:09;6.13;;;2.25;;
2810;SDS011;1413;52.440;13.506;2022-08-21T02:14:38;9.32;;;3.08;;
2810;SDS011;1413;52.440;13.506;2022-08-21T02:17:06;6.43;;;2.58;;
2810;SDS011;1413;52.440;13.506;2022-08-21T02:19:35;6.00;;;2.55;;
2810;SDS011;1413;52.440;13.506;2022-08-21T02:22:05;7.25;;;2.90;;
2810;SDS011;1413;52.440;13.506;2022-08-21T02:24:33;7.13;;;2.88;;
2810;SDS011;1413;52.440;13.506;2022-08-21T02:29:31;4.28;;;2.35;;
2810;SDS011;1413;52.440;13.506;2022-08-21T02:31:59;5.88;;;2.90;;
2810;SDS011;1413;52.440;13.506;2022-08-21T02:34:28;6.40;;;2.70;;
2810;SDS011;1413;52.440;13.506;2022-08-21T02:36:55;6.32;;;2.88;;
2810;SDS011;1413;52.440;13.506;2022-08-21T02:39:25;8.45;;;3.05;;
2810;SDS011;1413;52.440;13.506;2022-08-21T02:41:53;8.68;;;3.20;;
2810;SDS011;1413;52.440;13.506;2022-08-21T02:44:21;8.52;;;3.10;;
2810;SDS011;1413;52.440;13.506;2022-08-21T02:47:01;12.75;;;3.22;;
2810;SDS011;1413;52.440;13.506;2022-08-21T02:49:28;6.03;;;2.60;;
2810;SDS011;1413;52.440;13.506;2022-08-21T02:51:56;6.95;;;2.85;;
2810;SDS011;1413;52.440;13.506;2022-08-21T02:54:23;8.00;;;2.80;;
2810;SDS011;1413;52.440;13.506;2022-08-21T02:56:50;6.00;;;2.80;;
2810;SDS011;1413;52.440;13.506;2022-08-21T02:59:18;10.38;;;2.92;;
2810;SDS011;1413;52.440;13.506;2022-08-21T03:01:45;7.18;;;2.95;;
2810;SDS011;1413;52.440;13.506;2022-08-21T03:04:14;7.57;;;2.70;;
2810;SDS011;1413;52.440;13.506;2022-08-21T03:06:42;7.50;;;2.70;;
2810;SDS011;1413;52.440;13.506;2022-08-21T03:09:10;6.80;;;2.50;;
2810;SDS011;1413;52.440;13.506;2022-08-21T03:11:37;7.32;;;2.78;;
2810;SDS011;1413;52.440;13.506;2022-08-21T03:14:05;5.68;;;2.10;;
2810;SDS011;1413;52.440;13.506;2022-08-21T03:16:32;7.35;;;2.80;;
2810;SDS011;1413;52.440;13.506;2022-08-21T03:19:00;7.65;;;2.80;;
2810;SDS011;1413;52.440;13.506;2022-08-21T03:21:29;9.13;;;2.70;;
2810;SDS011;1413;52.440;13.506;2022-08-21T03:23:57;8.65;;;2.83;;
2810;SDS011;1413;52.440;13.506;2022-08-21T03:26:29;10.50;;;2.85;;
2810;SDS011;1413;52.440;13.506;2022-08-21T03:28:57;6.55;;;2.38;;
2810;SDS011;1413;52.440;13.506;2022-08-21T03:31:25;6.72;;;2.78;;
2810;SDS011;1413;52.440;13.506;2022-08-21T03:33:54;10.02;;;2.63;;
2810;SDS011;1413;52.440;13.506;2022-08-21T03:36:22;6.80;;;2.45;;
2810;SDS011;1413;52.440;13.506;2022-08-21T03:38:51;6.07;;;2.38;;
2810;SDS011;1413;52.440;13.506;2022-08-21T03:41:19;6.30;;;3.00;;
2810;SDS011;1413;52.440;13.506;2022-08-21T03:43:46;8.18;;;3.13;;
2810;SDS011;1413;52.440;13.506;2022-08-21T03:46:13;8.40;;;2.58;;
2810;SDS011;1413;52.440;13.506;2022-08-21T03:48:41;9.18;;;2.75;;
2810;SDS011;1413;52.440;13.506;2022-08-21T03:51:08;5.55;;;2.58;;
2810;SDS011;1413;52.440;13.506;2022-08-21T03:53:36;6.90;;;2.47;;
2810;SDS011;1413;52.440;13.506;2022-08-21T03:56:05;10.30;;;2.72;;
2810;SDS011;1413;52.440;13.506;2022-08-21T03:58:32;5.63;;;2.28;;
2810;SDS011;1413;52.440;13.506;2022-08-21T04:01:00;5.85;;;2.70;;
2810;SDS011;1413;52.440;13.506;2022-08-21T04:03:28;7.07;;;2.25;;
2810;SDS011;1413;52.440;13.506;2022-08-21T04:05:56;8.75;;;2.78;;
2810;SDS011;1413;52.440;13.506;2022-08-21T04:08:23;9.30;;;2.45;;
2810;SDS011;1413;52.440;13.506;2022-08-21T04:10:51;6.35;;;2.25;;
2810;SDS011;1413;52.440;13.506;2022-08-21T04:13:21;7.55;;;2.28;;
2810;SDS011;1413;52.440;13.506;2022-08-21T04:15:49;7.32;;;2.25;;
2810;SDS011;1413;52.440;13.506;2022-08-21T04:18:17;9.00;;;2.53;;
2810;SDS011;1413;52.440;13.506;2022-08-21T04:20:45;9.63;;;2.50;;
2810;SDS011;1413;52.440;13.506;2022-08-21T04:23:15;6.40;;;2.10;;
2810;SDS011;1413;52.440;13.506;2022-08-21T04:25:50;8.63;;;2.70;;
2810;SDS011;1413;52.440;13.506;2022-08-21T04:28:17;7.80;;;2.13;;
2810;SDS011;1413;52.440;13.506;2022-08-21T04:30:46;5.18;;;2.20;;
2810;SDS011;1413;52.440;13.506;2022-08-21T04:33:14;10.95;;;2.80;;
2810;SDS011;1413;52.440;13.506;2022-08-21T04:35:41;10.60;;;3.88;;
2810;SDS011;1413;52.440;13.506;2022-08-21T04:38:09;8.50;;;2.45;;
2810;SDS011;1413;52.440;13.506;2022-08-21T04:40:36;10.30;;;2.70;;
2810;SDS011;1413;52.440;13.506;2022-08-21T04:43:05;7.20;;;2.42;;
2810;SDS011;1413;52.440;13.506;2022-08-21T04:45:34;8.05;;;2.33;;
2810;SDS011;1413;52.440;13.506;2022-08-21T04:48:04;6.10;;;2.35;;
2810;SDS011;1413;52.440;13.506;2022-08-21T04:50:39;8.85;;;2.58;;
2810;SDS011;1413;52.440;13.506;2022-08-21T04:53:10;5.57;;;2.10;;
2810;SDS011;1413;52.440;13.506;2022-08-21T04:55:38;7.45;;;2.30;;
2810;SDS011;1413;52.440;13.506;2022-08-21T04:58:06;8.05;;;2.33;;
2810;SDS011;1413;52.440;13.506;2022-08-21T05:00:35;8.82;;;2.42;;
2810;SDS011;1413;52.440;13.506;2022-08-21T05:03:04;5.55;;;2.00;;
2810;SDS011;1413;52.440;13.506;2022-08-21T05:08:01;5.43;;;1.80;;
2810;SDS011;1413;52.440;13.506;2022-08-21T05:10:29;9.25;;;2.53;;
2810;SDS011;1413;52.440;13.506;2022-08-21T05:12:57;7.50;;;1.98;;
2810;SDS011;1413;52.440;13.506;2022-08-21T05:15:25;5.93;;;1.90;;
2810;SDS011;1413;52.440;13.506;2022-08-21T05:17:52;7.68;;;2.08;;
2810;SDS011;1413;52.440;13.506;2022-08-21T05:20:27;5.47;;;1.70;;
2810;SDS011;1413;52.440;13.506;2022-08-21T05:22:55;4.88;;;1.67;;
2810;SDS011;1413;52.440;13.506;2022-08-21T05:25:23;6.90;;;1.83;;
2810;SDS011;1413;52.440;13.506;2022-08-21T05:27:53;7.25;;;1.80;;
2810;SDS011;1413;52.440;13.506;2022-08-21T05:30:23;5.88;;;1.52;;
2810;SDS011;1413;52.440;13.506;2022-08-21T05:32:55;7.55;;;2.00;;
2810;SDS011;1413;52.440;13.506;2022-08-21T05:35:23;4.65;;;1.70;;
2810;SDS011;1413;52.440;13.506;2022-08-21T05:37:51;7.65;;;1.95;;
2810;SDS011;1413;52.440;13.506;2022-08-21T05:40:19;7.13;;;1.70;;
2810;SDS011;1413;52.440;13.506;2022-08-21T05:42:49;7.05;;;1.90;;
2810;SDS011;1413;52.440;13.506;2022-08-21T05:45:20;7.80;;;2.00;;
2810;SDS011;1413;52.440;13.506;2022-08-21T05:48:08;6.80;;;1.73;;
2810;SDS011;1413;52.440;13.506;2022-08-21T05:50:35;5.65;;;1.42;;
2810;SDS011;1413;52.440;13.506;2022-08-21T05:53:05;9.48;;;1.80;;
2810;SDS011;1413;52.440;13.506;2022-08-21T05:55:33;8.15;;;1.60;;
2810;SDS011;1413;52.440;13.506;2022-08-21T05:58:00;7.43;;;2.00;;
2810;SDS011;1413;52.440;13.506;2022-08-21T06:00:28;5.30;;;1.60;;
2810;SDS011;1413;52.440;13.506;2022-08-21T06:02:56;5.55;;;1.73;;
2810;SDS011;1413;52.440;13.506;2022-08-21T06:05:23;9.50;;;2.58;;
2810;SDS011;1413;52.440;13.506;2022-08-21T06:08:03;7.05;;;2.17;;
2810;SDS011;1413;52.440;13.506;2022-08-21T06:10:31;7.50;;;2.05;;
2810;SDS011;1413;52.440;13.506;2022-08-21T06:12:59;7.28;;;1.85;;
2810;SDS011;1413;52.440;13.506;2022-08-21T06:15:26;5.80;;;1.35;;
2810;SDS011;1413;52.440;13.506;2022-08-21T06:17:54;7.03;;;1.50;;
2810;SDS011;1413;52.440;13.506;2022-08-21T06:20:22;4.55;;;1.45;;
2810;SDS011;1413;52.440;13.506;2022-08-21T06:22:49;6.68;;;1.80;;
2810;SDS011;1413;52.440;13.506;2022-08-21T06:25:17;7.03;;;1.50;;
2810;SDS011;1413;52.440;13.506;2022-08-21T06:27:46;7.20;;;1.52;;
2810;SDS011;1413;52.440;13.506;2022-08-21T06:30:14;5.85;;;1.30;;
2810;SDS011;1413;52.440;13.506;2022-08-21T06:32:41;7.65;;;1.25;;
2810;SDS011;1413;52.440;13.506;2022-08-21T06:35:09;6.22;;;1.48;;
2810;SDS011;1413;52.440;13.506;2022-08-21T06:37:37;7.15;;;1.92;;
2810;SDS011;1413;52.440;13.506;2022-08-21T06:40:05;10.43;;;1.60;;
2810;SDS011;1413;52.440;13.506;2022-08-21T06:42:38;8.60;;;2.00;;
2810;SDS011;1413;52.440;13.506;2022-08-21T06:45:09;7.85;;;1.15;;
2810;SDS011;1413;52.440;13.506;2022-08-21T06:47:37;6.82;;;1.80;;
2810;SDS011;1413;52.440;13.506;2022-08-21T06:50:05;7.70;;;1.23;;
2810;SDS011;1413;52.440;13.506;2022-08-21T06:52:33;6.60;;;1.40;;
2810;SDS011;1413;52.440;13.506;2022-08-21T06:55:01;7.05;;;1.40;;
2810;SDS011;1413;52.440;13.506;2022-08-21T06:57:28;4.95;;;1.30;;
2810;SDS011;1413;52.440;13.506;2022-08-21T06:59:56;6.18;;;1.35;;
2810;SDS011;1413;52.440;13.506;2022-08-21T07:02:25;9.18;;;1.98;;
2810;SDS011;1413;52.440;13.506;2022-08-21T07:04:52;6.10;;;1.48;;
2810;SDS011;1413;52.440;13.506;2022-08-21T07:07:19;7.65;;;1.50;;
2810;SDS011;1413;52.440;13.506;2022-08-21T07:09:47;8.18;;;1.50;;
2810;SDS011;1413;52.440;13.506;2022-08-21T07:12:14;8.55;;;1.77;;
2810;SDS011;1413;52.440;13.506;2022-08-21T07:14:42;8.75;;;1.48;;
2810;SDS011;1413;52.440;13.506;2022-08-21T07:17:09;5.90;;;1.33;;
2810;SDS011;1413;52.440;13.506;2022-08-21T07:19:38;7.53;;;1.50;;
2810;SDS011;1413;52.440;13.506;2022-08-21T07:22:06;4.38;;;1.20;;
2810;SDS011;1413;52.440;13.506;2022-08-21T07:24:33;7.22;;;1.70;;
2810;SDS011;1413;52.440;13.506;2022-08-21T07:27:01;8.52;;;1.38;;
2810;SDS011;1413;52.440;13.506;2022-08-21T07:29:34;8.10;;;1.83;;
2810;SDS011;1413;52.440;13.506;2022-08-21T07:32:02;8.45;;;1.80;;
2810;SDS011;1413;52.440;13.506;2022-08-21T07:34:30;5.00;;;1.20;;
2810;SDS011;1413;52.440;13.506;2022-08-21T07:36:59;6.50;;;1.42;;
2810;SDS011;1413;52.440;13.506;2022-08-21T07:39:35;7.30;;;1.63;;
2810;SDS011;1413;52.440;13.506;2022-08-21T07:42:03;5.97;;;1.15;;
2810;SDS011;1413;52.440;13.506;2022-08-21T07:44:33;7.07;;;1.40;;
2810;SDS011;1413;52.440;13.506;2022-08-21T07:47:01;7.38;;;1.33;;
2810;SDS011;1413;52.440;13.506;2022-08-21T07:49:28;4.55;;;1.17;;
2810;SDS011;1413;52.440;13.506;2022-08-21T07:51:56;5.45;;;1.23;;
2810;SDS011;1413;52.440;13.506;2022-08-21T07:54:25;7.15;;;1.60;;
2810;SDS011;1413;52.440;13.506;2022-08-21T07:56:59;4.78;;;1.30;;
2810;SDS011;1413;52.440;13.506;2022-08-21T07:59:26;8.73;;;1.73;;
2810;SDS011;1413;52.440;13.506;2022-08-21T08:01:54;5.10;;;1.20;;
2810;SDS011;1413;52.440;13.506;2022-08-21T08:04:22;3.60;;;0.93;;
2810;SDS011;1413;52.440;13.506;2022-08-21T08:06:52;5.93;;;1.50;;
2810;SDS011;1413;52.440;13.506;2022-08-21T08:09:19;4.95;;;1.30;;
2810;SDS011;1413;52.440;13.506;2022-08-21T08:11:48;5.82;;;1.00;;
2810;SDS011;1413;52.440;13.506;2022-08-21T08:14:15;8.63;;;1.20;;
2810;SDS011;1413;52.440;13.506;2022-08-21T08:16:43;4.72;;;0.90;;
2810;SDS011;1413;52.440;13.506;2022-08-21T08:19:11;5.95;;;1.08;;
2810;SDS011;1413;52.440;13.506;2022-08-21T08:21:38;7.43;;;1.35;;
2810;SDS011;1413;52.440;13.506;2022-08-21T08:24:06;5.38;;;0.90;;
2810;SDS011;1413;52.440;13.506;2022-08-21T08:26:45;5.60;;;1.00;;
2810;SDS011;1413;52.440;13.506;2022-08-21T08:29:20;5.95;;;1.20;;
2810;SDS011;1413;52.440;13.506;2022-08-21T08:31:48;9.40;;;2.00;;
2810;SDS011;1413;52.440;13.506;2022-08-21T08:34:16;4.40;;;1.25;;
2810;SDS011;1413;52.440;13.506;2022-08-21T08:36:50;4.25;;;1.00;;
2810;SDS011;1413;52.440;13.506;2022-08-21T08:39:18;5.47;;;1.20;;
2810;SDS011;1413;52.440;13.506;2022-08-21T08:41:56;4.57;;;0.95;;
2810;SDS011;1413;52.440;13.506;2022-08-21T08:44:27;4.78;;;1.00;;
2810;SDS011;1413;52.440;13.506;2022-08-21T08:46:55;3.95;;;0.90;;
2810;SDS011;1413;52.440;13.506;2022-08-21T08:49:24;4.85;;;1.08;;
2810;SDS011;1413;52.440;13.506;2022-08-21T08:51:54;4.90;;;1.08;;
2810;SDS011;1413;52.440;13.506;2022-08-21T08:54:25;4.22;;;1.20;;
2810;SDS011;1413;52.440;13.506;2022-08-21T08:56:57;8.45;;;1.40;;
2810;SDS011;1413;52.440;13.506;2022-08-21T08:59:26;5.57;;;1.20;;
2810;SDS011;1413;52.440;13.506;2022-08-21T09:04:25;5.13;;;1.10;;
2810;SDS011;1413;52.440;13.506;2022-08-21T09:07:00;8.43;;;1.10;;
2810;SDS011;1413;52.440;13.506;2022-08-21T09:09:31;5.38;;;0.95;;
2810;SDS011;1413;52.440;13.506;2022-08-21T09:12:04;5.03;;;1.13;;
2810;SDS011;1413;52.440;13.506;2022-08-21T09:14:38;5.50;;;1.13;;
2810;SDS011;1413;52.440;13.506;2022-08-21T09:17:12;4.82;;;1.20;;
2810;SDS011;1413;52.440;13.506;2022-08-21T09:19:48;6.82;;;1.30;;
2810;SDS011;1413;52.440;13.506;2022-08-21T09:22:19;7.10;;;1.20;;
2810;SDS011;1413;52.440;13.506;2022-08-21T09:24:53;9.20;;;1.20;;
2810;SDS011;1413;52.440;13.506;2022-08-21T09:27:21;7.07;;;1.10;;
2810;SDS011;1413;52.440;13.506;2022-08-21T09:29:50;6.32;;;1.45;;
2810;SDS011;1413;52.440;13.506;2022-08-21T09:32:20;6.18;;;1.00;;
2810;SDS011;1413;52.440;13.506;2022-08-21T09:35:05;4.07;;;1.00;;
2810;SDS011;1413;52.440;13.506;2022-08-21T09:37:33;5.35;;;1.30;;
2810;SDS011;1413;52.440;13.506;2022-08-21T09:40:02;3.65;;;1.08;;
2810;SDS011;1413;52.440;13.506;2022-08-21T09:42:31;3.83;;;1.27;;
2810;SDS011;1413;52.440;13.506;2022-08-21T09:45:06;5.20;;;1.10;;
2810;SDS011;1413;52.440;13.506;2022-08-21T09:47:34;5.45;;;1.10;;
2810;SDS011;1413;52.440;13.506;2022-08-21T09:50:14;5.43;;;1.40;;
2810;SDS011;1413;52.440;13.506;2022-08-21T09:52:43;3.58;;;0.80;;
2810;SDS011;1413;52.440;13.506;2022-08-21T09:55:15;6.65;;;0.90;;
2810;SDS011;1413;52.440;13.506;2022-08-21T09:58:03;4.47;;;1.00;;
2810;SDS011;1413;52.440;13.506;2022-08-21T10:00:30;4.20;;;1.10;;
2810;SDS011;1413;52.440;13.506;2022-08-21T10:03:11;5.50;;;1.00;;
2810;SDS011;1413;52.440;13.506;2022-08-21T10:05:49;7.47;;;1.40;;
2810;SDS011;1413;52.440;13.506;2022-08-21T10:08:17;4.47;;;0.90;;
2810;SDS011;1413;52.440;13.506;2022-08-21T10:10:45;9.60;;;1.25;;
2810;SDS011;1413;52.440;13.506;2022-08-21T10:13:24;3.78;;;1.10;;
2810;SDS011;1413;52.440;13.506;2022-08-21T10:16:02;3.20;;;1.02;;
2810;SDS011;1413;52.440;13.506;2022-08-21T10:18:34;5.70;;;1.10;;
2810;SDS011;1413;52.440;13.506;2022-08-21T10:21:07;7.40;;;1.10;;
2810;SDS011;1413;52.440;13.506;2022-08-21T10:23:40;4.40;;;1.00;;
2810;SDS011;1413;52.440;13.506;2022-08-21T10:26:11;7.28;;;1.10;;
2810;SDS011;1413;52.440;13.506;2022-08-21T10:28:44;4.63;;;1.33;;
2810;SDS011;1413;52.440;13.506;2022-08-21T10:31:16;4.40;;;1.00;;
2810;SDS011;1413;52.440;13.506;2022-08-21T10:33:48;7.28;;;1.45;;
2810;SDS011;1413;52.440;13.506;2022-08-21T10:36:21;7.75;;;1.00;;
2810;SDS011;1413;52.440;13.506;2022-08-21T10:38:54;4.50;;;1.20;;
2810;SDS011;1413;52.440;13.506;2022-08-21T10:41:45;4.57;;;1.00;;
2810;SDS011;1413;52.440;13.506;2022-08-21T10:44:19;4.78;;;1.35;;
2810;SDS011;1413;52.440;13.506;2022-08-21T10:46:51;4.80;;;1.08;;
2810;SDS011;1413;52.440;13.506;2022-08-21T10:49:35;4.90;;;1.10;;
2810;SDS011;1413;52.440;13.506;2022-08-21T10:52:15;5.72;;;1.25;;
2810;SDS011;1413;52.440;13.506;2022-08-21T10:54:47;5.88;;;1.30;;
2810;SDS011;1413;52.440;13.506;2022-08-21T10:59:55;4.75;;;1.10;;
2810;SDS011;1413;52.440;13.506;2022-08-21T11:02:25;5.05;;;0.90;;
2810;SDS011;1413;52.440;13.506;2022-08-21T11:04:55;4.78;;;1.25;;
2810;SDS011;1413;52.440;13.506;2022-08-21T11:07:27;3.80;;;0.80;;
2810;SDS011;1413;52.440;13.506;2022-08-21T11:10:00;4.70;;;0.90;;
2810;SDS011;1413;52.440;13.506;2022-08-21T11:12:31;6.03;;;1.20;;
2810;SDS011;1413;52.440;13.506;2022-08-21T11:15:03;5.18;;;1.20;;
2810;SDS011;1413;52.440;13.506;2022-08-21T11:17:34;5.72;;;1.33;;
2810;SDS011;1413;52.440;13.506;2022-08-21T11:20:05;4.95;;;1.23;;
2810;SDS011;1413;52.440;13.506;2022-08-21T11:22:38;5.93;;;1.42;;
2810;SDS011;1413;52.440;13.506;2022-08-21T11:25:09;4.22;;;1.05;;
2810;SDS011;1413;52.440;13.506;2022-08-21T11:27:38;5.35;;;1.17;;
2810;SDS011;1413;52.440;13.506;2022-08-21T11:30:09;6.13;;;1.10;;
2810;SDS011;1413;52.440;13.506;2022-08-21T11:32:46;5.13;;;1.05;;
2810;SDS011;1413;52.440;13.506;2022-08-21T11:35:18;6.13;;;1.02;;
2810;SDS011;1413;52.440;13.506;2022-08-21T11:38:04;5.07;;;1.20;;
2810;SDS011;1413;52.440;13.506;2022-08-21T11:40:41;4.25;;;1.10;;
2810;SDS011;1413;52.440;13.506;2022-08-21T11:43:12;5.05;;;1.13;;
2810;SDS011;1413;52.440;13.506;2022-08-21T11:45:44;4.40;;;1.05;;
2810;SDS011;1413;52.440;13.506;2022-08-21T11:48:14;3.03;;;0.90;;
2810;SDS011;1413;52.440;13.506;2022-08-21T11:50:43;3.90;;;0.90;;
2810;SDS011;1413;52.440;13.506;2022-08-21T11:53:13;3.05;;;0.82;;
2810;SDS011;1413;52.440;13.506;2022-08-21T11:55:43;4.15;;;0.80;;
2810;SDS011;1413;52.440;13.506;2022-08-21T11:58:14;4.20;;;1.00;;
2810;SDS011;1413;52.440;13.506;2022-08-21T12:00:43;3.83;;;0.95;;
2810;SDS011;1413;52.440;13.506;2022-08-21T12:03:13;5.32;;;0.90;;
2810;SDS011;1413;52.440;13.506;2022-08-21T12:05:42;5.13;;;1.55;;
2810;SDS011;1413;52.440;13.506;2022-08-21T12:08:14;3.10;;;0.77;;
2810;SDS011;1413;52.440;13.506;2022-08-21T12:10:45;4.35;;;1.00;;
2810;SDS011;1413;52.440;13.506;2022-08-21T12:13:21;2.28;;;0.80;;
2810;SDS011;1413;52.440;13.506;2022-08-21T12:16:10;4.75;;;0.90;;
2810;SDS011;1413;52.440;13.506;2022-08-21T12:18:38;5.30;;;0.70;;
2810;SDS011;1413;52.440;13.506;2022-08-21T12:21:17;3.08;;;0.70;;
2810;SDS011;1413;52.440;13.506;2022-08-21T12:23:47;3.60;;;0.90;;
2810;SDS011;1413;52.440;13.506;2022-08-21T12:26:26;3.25;;;0.70;;
2810;SDS011;1413;52.440;13.506;2022-08-21T12:29:04;3.10;;;0.98;;
2810;SDS011;1413;52.440;13.506;2022-08-21T12:31:32;3.92;;;0.73;;
2810;SDS011;1413;52.440;13.506;2022-08-21T12:33:59;3.20;;;0.70;;
2810;SDS011;1413;52.440;13.506;2022-08-21T12:36:33;4.82;;;0.90;;
2810;SDS011;1413;52.440;13.506;2022-08-21T12:39:10;2.35;;;0.65;;
2810;SDS011;1413;52.440;13.506;2022-08-21T12:41:41;4.10;;;0.80;;
2810;SDS011;1413;52.440;13.506;2022-08-21T12:44:10;2.70;;;0.70;;
2810;SDS011;1413;52.440;13.506;2022-08-21T12:46:42;4.50;;;0.85;;
2810;SDS011;1413;52.440;13.506;2022-08-21T12:49:12;3.60;;;0.75;;
2810;SDS011;1413;52.440;13.506;2022-08-21T12:51:47;4.30;;;0.90;;
2810;SDS011;1413;52.440;13.506;2022-08-21T12:54:26;3.95;;;0.80;;
2810;SDS011;1413;52.440;13.506;2022-08-21T12:56:56;3.38;;;0.90;;
2810;SDS011;1413;52.440;13.506;2022-08-21T12:59:24;4.90;;;0.88;;
2810;SDS011;1413;52.440;13.506;2022-08-21T13:01:52;3.03;;;0.73;;
2810;SDS011;1413;52.440;13.506;2022-08-21T13:04:22;3.55;;;0.75;;
2810;SDS011;1413;52.440;13.506;2022-08-21T13:06:54;2.50;;;0.65;;
2810;SDS011;1413;52.440;13.506;2022-08-21T13:09:23;3.67;;;0.80;;
2810;SDS011;1413;52.440;13.506;2022-08-21T13:11:53;3.30;;;0.70;;
2810;SDS011;1413;52.440;13.506;2022-08-21T13:14:23;2.40;;;0.70;;
2810;SDS011;1413;52.440;13.506;2022-08-21T13:16:53;2.72;;;0.60;;
2810;SDS011;1413;52.440;13.506;2022-08-21T13:19:21;2.78;;;0.60;;
2810;SDS011;1413;52.440;13.506;2022-08-21T13:21:50;3.40;;;1.00;;
2810;SDS011;1413;52.440;13.506;2022-08-21T13:24:19;3.78;;;0.77;;
2810;SDS011;1413;52.440;13.506;2022-08-21T13:27:17;2.67;;;0.70;;
2810;SDS011;1413;52.440;13.506;2022-08-21T13:29:45;2.45;;;0.70;;
2810;SDS011;1413;52.440;13.506;2022-08-21T13:32:20;4.57;;;0.70;;
2810;SDS011;1413;52.440;13.506;2022-08-21T13:34:50;3.67;;;1.10;;
2810;SDS011;1413;52.440;13.506;2022-08-21T13:37:19;2.53;;;0.77;;
2810;SDS011;1413;52.440;13.506;2022-08-21T13:39:49;3.15;;;0.80;;
2810;SDS011;1413;52.440;13.506;2022-08-21T13:44:47;3.63;;;0.60;;
2810;SDS011;1413;52.440;13.506;2022-08-21T13:47:15;2.72;;;0.73;;
2810;SDS011;1413;52.440;13.506;2022-08-21T13:49:44;2.30;;;0.60;;
2810;SDS011;1413;52.440;13.506;2022-08-21T13:52:13;2.17;;;0.60;;
2810;SDS011;1413;52.440;13.506;2022-08-21T13:57:17;4.70;;;0.80;;
2810;SDS011;1413;52.440;13.506;2022-08-21T13:59:46;3.03;;;0.75;;
2810;SDS011;1413;52.440;13.506;2022-08-21T14:02:18;2.85;;;0.65;;
2810;SDS011;1413;52.440;13.506;2022-08-21T14:04:50;4.43;;;0.88;;
2810;SDS011;1413;52.440;13.506;2022-08-21T14:07:19;3.70;;;0.82;;
2810;SDS011;1413;52.440;13.506;2022-08-21T14:09:47;5.57;;;0.98;;
2810;SDS011;1413;52.440;13.506;2022-08-21T14:12:16;3.03;;;0.82;;
2810;SDS011;1413;52.440;13.506;2022-08-21T14:14:50;5.00;;;0.80;;
2810;SDS011;1413;52.440;13.506;2022-08-21T14:17:25;4.07;;;1.38;;
2810;SDS011;1413;52.440;13.506;2022-08-21T14:19:59;4.85;;;1.00;;
2810;SDS011;1413;52.440;13.506;2022-08-21T14:22:28;5.03;;;1.10;;
2810;SDS011;1413;52.440;13.506;2022-08-21T14:24:59;2.88;;;0.98;;
2810;SDS011;1413;52.440;13.506;2022-08-21T14:27:28;4.20;;;1.00;;
2810;SDS011;1413;52.440;13.506;2022-08-21T14:29:58;2.78;;;0.82;;
2810;SDS011;1413;52.440;13.506;2022-08-21T14:32:27;4.20;;;1.27;;
2810;SDS011;1413;52.440;13.506;2022-08-21T14:34:58;6.50;;;1.20;;
2810;SDS011;1413;52.440;13.506;2022-08-21T14:37:25;4.13;;;1.10;;
2810;SDS011;1413;52.440;13.506;2022-08-21T14:39:52;6.25;;;1.30;;
2810;SDS011;1413;52.440;13.506;2022-08-21T14:42:20;3.75;;;1.20;;
2810;SDS011;1413;52.440;13.506;2022-08-21T14:44:48;7.57;;;1.17;;
2810;SDS011;1413;52.440;13.506;2022-08-21T14:47:16;4.53;;;1.00;;
2810;SDS011;1413;52.440;13.506;2022-08-21T14:49:44;4.50;;;1.02;;
2810;SDS011;1413;52.440;13.506;2022-08-21T14:52:11;4.22;;;1.20;;
2810;SDS011;1413;52.440;13.506;2022-08-21T14:54:39;4.50;;;1.10;;
2810;SDS011;1413;52.440;13.506;2022-08-21T14:57:07;4.85;;;0.90;;
2810;SDS011;1413;52.440;13.506;2022-08-21T14:59:35;3.47;;;0.80;;
2810;SDS011;1413;52.440;13.506;2022-08-21T15:02:04;5.75;;;0.93;;
2810;SDS011;1413;52.440;13.506;2022-08-21T15:04:33;3.85;;;1.00;;
2810;SDS011;1413;52.440;13.506;2022-08-21T15:07:01;3.83;;;1.00;;
2810;SDS011;1413;52.440;13.506;2022-08-21T15:09:28;3.90;;;1.20;;
2810;SDS011;1413;52.440;13.506;2022-08-21T15:11:57;4.28;;;1.00;;
2810;SDS011;1413;52.440;13.506;2022-08-21T15:14:26;3.80;;;1.02;;
2810;SDS011;1413;52.440;13.506;2022-08-21T15:16:54;7.63;;;1.40;;
2810;SDS011;1413;52.440;13.506;2022-08-21T15:19:21;5.75;;;1.10;;
2810;SDS011;1413;52.440;13.506;2022-08-21T15:21:50;3.78;;;1.50;;
2810;SDS011;1413;52.440;13.506;2022-08-21T15:24:18;7.57;;;1.52;;
2810;SDS011;1413;52.440;13.506;2022-08-21T15:26:45;3.63;;;1.15;;
2810;SDS011;1413;52.440;13.506;2022-08-21T15:29:13;6.80;;;1.50;;
2810;SDS011;1413;52.440;13.506;2022-08-21T15:31:52;8.70;;;2.42;;